Time;durP1;ratioP1;P1;durP2;ratioP2;P2;SDS_P1;SDS_P2;PMS_P1;PMS_P2;Temp;Humidity;BMP_temperature;BMP_pressure;BME280_temperature;BME280_humidity;BME280_pressure;Samples;Min_cycle;Max_cycle;Signal;HPM_P1;HPM_P2
2024/04/24 00:00:22;;;;;;;0.00;0.00;;;4.70;1.00;;;;;;5228164;27;20336;-63
2024/04/24 00:02:51;;;;;;;0.00;0.00;;;4.60;1.00;;;;;;5229281;27;20017;-63
2024/04/24 00:05:17;;;;;;;0.08;0.05;;;4.60;1.00;;;;;;5216312;27;20027;-63
2024/04/24 00:07:43;;;;;;;0.00;0.00;;;4.60;1.00;;;;;;5232461;27;20019;-63
2024/04/24 00:10:09;;;;;;;0.00;0.00;;;4.60;1.00;;;;;;5243851;27;20014;-63
2024/04/24 00:12:35;;;;;;;0.00;0.00;;;4.50;1.00;;;;;;5234015;27;20054;-63
2024/04/24 00:15:01;;;;;;;0.63;0.30;;;4.60;1.00;;;;;;5232133;27;20094;-63
2024/04/24 00:17:26;;;;;;;0.40;0.00;;;4.60;1.00;;;;;;5231325;27;20452;-63
2024/04/24 00:19:59;;;;;;;0.00;0.00;;;4.60;1.00;;;;;;5198128;27;20011;-63
2024/04/24 00:22:24;;;;;;;0.00;0.00;;;4.60;1.00;;;;;;5231638;27;20011;-63
2024/04/24 00:24:50;;;;;;;0.10;0.10;;;4.60;16.40;;;;;;5231536;27;20051;-63
2024/04/24 00:27:16;;;;;;;0.00;0.00;;;4.60;24.90;;;;;;5232943;27;20011;-63
2024/04/24 00:29:42;;;;;;;0.00;0.00;;;4.60;38.40;;;;;;5240496;27;20003;-63
2024/04/24 00:32:08;;;;;;;0.00;0.00;;;4.60;69.40;;;;;;5202558;27;20053;-63
2024/04/24 00:34:33;;;;;;;0.00;0.00;;;4.60;87.00;;;;;;5231024;27;20022;-63
2024/04/24 00:36:59;;;;;;;0.00;0.00;;;4.60;99.90;;;;;;5231234;27;20429;-63
2024/04/24 00:39:25;;;;;;;0.00;0.00;;;4.70;99.90;;;;;;5202312;27;20007;-63
2024/04/24 00:41:51;;;;;;;0.00;0.00;;;4.70;99.90;;;;;;5231248;27;20015;-62
2024/04/24 00:44:17;;;;;;;0.00;0.00;;;4.70;99.90;;;;;;5232166;27;20003;-63
2024/04/24 00:46:45;;;;;;;0.00;0.00;;;4.70;99.90;;;;;;5231218;27;20513;-63
2024/04/24 00:49:12;;;;;;;0.00;0.00;;;4.70;99.90;;;;;;5231908;27;20042;-63
2024/04/24 00:51:40;;;;;;;0.22;0.10;;;4.70;99.90;;;;;;5201236;27;20371;-63
2024/04/24 00:54:07;;;;;;;0.20;0.10;;;4.70;99.90;;;;;;5231568;27;20007;-63
2024/04/24 00:56:34;;;;;;;0.00;0.00;;;4.60;99.90;;;;;;5231235;27;20038;-63
2024/04/24 00:59:00;;;;;;;0.00;0.00;;;4.50;99.90;;;;;;5231171;27;19999;-63
2024/04/24 01:01:26;;;;;;;0.25;0.00;;;4.50;99.90;;;;;;5231996;27;20017;-63
2024/04/24 01:03:53;;;;;;;0.35;0.10;;;4.40;99.90;;;;;;5225182;27;20010;-63
2024/04/24 01:06:19;;;;;;;0.00;0.00;;;4.40;1.00;;;;;;5231706;27;20005;-64
2024/04/24 01:08:45;;;;;;;0.00;0.00;;;4.40;1.00;;;;;;5230617;27;20017;-63
2024/04/24 01:11:11;;;;;;;0.00;0.00;;;4.40;13.00;;;;;;5231025;27;20058;-63
2024/04/24 01:13:37;;;;;;;0.00;0.00;;;4.40;44.00;;;;;;5230421;27;20056;-63
2024/04/24 01:16:11;;;;;;;0.00;0.00;;;4.40;88.10;;;;;;5231880;27;20011;-63
2024/04/24 01:18:42;;;;;;;0.00;0.00;;;4.40;99.90;;;;;;5231156;27;20082;-64
2024/04/24 01:21:08;;;;;;;;;;;4.40;99.90;;;;;;5230978;27;20007;-63
2024/04/24 01:23:45;;;;;;;0.00;0.00;;;4.40;99.90;;;;;;5231377;27;20043;-63
2024/04/24 01:26:49;;;;;;;0.52;0.17;;;4.40;99.90;;;;;;5229891;27;20471;-63
2024/04/24 01:29:15;;;;;;;0.00;0.00;;;4.40;99.90;;;;;;5225539;27;20014;-63
2024/04/24 01:31:41;;;;;;;0.00;0.00;;;4.40;99.90;;;;;;5240054;27;20007;-63
2024/04/24 01:34:07;;;;;;;0.00;0.00;;;4.30;99.90;;;;;;5245430;27;20021;-63
2024/04/24 01:36:33;;;;;;;0.00;0.00;;;4.30;99.90;;;;;;5231313;27;20006;-63
2024/04/24 01:38:59;;;;;;;0.00;0.00;;;4.30;99.90;;;;;;5229211;27;20017;-63
2024/04/24 01:41:25;;;;;;;0.00;0.00;;;4.20;99.90;;;;;;5183736;27;20008;-63
2024/04/24 01:43:50;;;;;;;0.00;0.00;;;4.20;99.90;;;;;;5229471;27;20081;-63
2024/04/24 01:46:16;;;;;;;0.00;0.00;;;4.10;98.30;;;;;;5231095;27;20011;-63
2024/04/24 01:48:42;;;;;;;0.00;0.00;;;4.20;99.90;;;;;;5230440;27;20003;-63
2024/04/24 01:51:08;;;;;;;0.00;0.00;;;4.20;99.90;;;;;;5231048;27;20011;-63
2024/04/24 01:53:34;;;;;;;0.10;0.10;;;4.20;99.90;;;;;;5231121;27;20102;-63
2024/04/24 01:56:01;;;;;;;0.00;0.00;;;4.30;99.90;;;;;;5229911;27;20006;-63
2024/04/24 01:58:26;;;;;;;0.00;0.00;;;4.40;99.90;;;;;;5230870;27;20005;-63
2024/04/24 02:00:52;;;;;;;0.00;0.00;;;4.50;99.90;;;;;;5230315;27;20021;-63
2024/04/24 02:03:18;;;;;;;0.00;0.00;;;4.50;99.90;;;;;;5230369;27;20005;-63
2024/04/24 02:05:44;;;;;;;0.03;0.03;;;4.50;99.90;;;;;;5230178;27;20047;-63
2024/04/24 02:08:11;;;;;;;0.00;0.00;;;4.60;99.90;;;;;;5230016;27;20772;-63
2024/04/24 02:10:37;;;;;;;0.00;0.00;;;4.60;99.90;;;;;;5230409;27;20824;-63
2024/04/24 02:13:03;;;;;;;0.00;0.00;;;4.60;99.90;;;;;;5200047;27;20022;-63
2024/04/24 02:15:29;;;;;;;0.47;0.00;;;4.70;99.90;;;;;;5231247;27;20022;-63
2024/04/24 02:18:01;;;;;;;0.00;0.00;;;4.70;99.90;;;;;;5228085;27;19999;-62
2024/04/24 02:20:27;;;;;;;0.00;0.00;;;4.70;99.90;;;;;;5230963;27;20007;-62
2024/04/24 02:22:56;;;;;;;0.10;0.10;;;4.60;99.90;;;;;;5229167;27;20034;-62
2024/04/24 02:25:34;;;;;;;0.00;0.00;;;4.60;99.90;;;;;;5230349;27;20023;-63
2024/04/24 02:28:07;;;;;;;0.00;0.00;;;4.50;99.90;;;;;;5230156;27;20422;-63
2024/04/24 02:30:32;;;;;;;0.00;0.00;;;4.50;99.90;;;;;;5229426;27;20011;-63
2024/04/24 02:32:59;;;;;;;0.00;0.00;;;4.50;99.90;;;;;;5230019;27;20018;-63
2024/04/24 02:35:25;;;;;;;0.00;0.00;;;4.50;99.90;;;;;;5228916;27;20011;-63
2024/04/24 02:37:50;;;;;;;0.00;0.00;;;4.50;99.90;;;;;;5225106;27;20003;-63
2024/04/24 02:40:16;;;;;;;0.00;0.00;;;4.50;99.90;;;;;;5228373;27;20001;-62
2024/04/24 02:42:42;;;;;;;0.00;0.00;;;4.40;99.90;;;;;;5230395;27;20460;-63
2024/04/24 02:45:08;;;;;;;0.00;0.00;;;4.50;99.90;;;;;;5231385;27;20022;-62
2024/04/24 02:47:34;;;;;;;0.00;0.00;;;4.50;99.90;;;;;;5200396;27;20050;-62
2024/04/24 02:49:59;;;;;;;0.00;0.00;;;4.50;99.90;;;;;;5230390;27;20381;-62
2024/04/24 02:52:25;;;;;;;0.00;0.00;;;4.50;99.90;;;;;;5228379;27;20525;-62
2024/04/24 02:54:51;;;;;;;0.00;0.00;;;4.60;99.90;;;;;;5230400;27;20010;-62
2024/04/24 02:57:18;;;;;;;0.00;0.00;;;4.60;99.90;;;;;;5228610;27;20019;-62
2024/04/24 02:59:44;;;;;;;0.00;0.00;;;4.70;99.90;;;;;;5229816;27;20007;-62
2024/04/24 03:02:09;;;;;;;0.00;0.00;;;4.60;99.90;;;;;;5193512;27;20067;-63
2024/04/24 03:04:35;;;;;;;0.00;0.00;;;4.50;99.90;;;;;;5198212;27;20014;-62
2024/04/24 03:07:01;;;;;;;0.00;0.00;;;4.50;99.90;;;;;;5253942;27;20130;-62
2024/04/24 03:09:27;;;;;;;0.10;0.00;;;4.50;99.90;;;;;;5226215;27;20003;-62
2024/04/24 03:11:53;;;;;;;0.00;0.00;;;4.50;99.90;;;;;;5230692;27;20040;-62
2024/04/24 03:14:19;;;;;;;0.00;0.00;;;4.50;99.90;;;;;;5227638;27;19999;-62
2024/04/24 03:16:45;;;;;;;0.43;0.10;;;4.50;99.90;;;;;;5230411;27;20007;-62
2024/04/24 03:19:12;;;;;;;0.10;0.10;;;4.50;99.90;;;;;;5198923;27;20003;-62
2024/04/24 03:21:38;;;;;;;0.00;0.00;;;4.40;99.90;;;;;;5200659;27;20022;-61
2024/04/24 03:24:04;;;;;;;0.00;0.00;;;4.50;99.90;;;;;;5229380;27;20011;-62
2024/04/24 03:26:30;;;;;;;0.00;0.00;;;4.40;99.90;;;;;;5227841;27;20011;-62
2024/04/24 03:28:56;;;;;;;0.00;0.00;;;4.40;99.90;;;;;;5201137;27;20011;-62
2024/04/24 03:31:22;;;;;;;0.00;0.00;;;4.40;99.90;;;;;;5230753;27;20709;-63
2024/04/24 03:33:48;;;;;;;0.00;0.00;;;4.40;99.90;;;;;;5233470;27;20018;-62
2024/04/24 03:36:14;;;;;;;0.00;0.00;;;4.40;99.90;;;;;;5231192;27;20011;-62
2024/04/24 03:38:41;;;;;;;0.00;0.00;;;4.40;99.90;;;;;;5232893;27;20115;-62
2024/04/24 03:41:08;;;;;;;0.00;0.00;;;4.40;99.90;;;;;;5232646;27;20024;-63
2024/04/24 03:43:34;;;;;;;0.00;0.00;;;4.40;99.90;;;;;;5200096;27;20007;-62
2024/04/24 03:46:00;;;;;;;0.00;0.00;;;4.50;99.90;;;;;;5233669;27;20055;-62
2024/04/24 03:48:26;;;;;;;0.00;0.00;;;4.50;99.90;;;;;;5201288;27;20003;-62
2024/04/24 03:50:55;;;;;;;0.00;0.00;;;4.50;99.90;;;;;;5233318;27;20442;-62
2024/04/24 03:53:22;;;;;;;0.00;0.00;;;4.50;99.90;;;;;;5247701;27;20334;-62
2024/04/24 03:55:48;;;;;;;0.00;0.00;;;4.50;99.90;;;;;;5233407;27;20362;-62
2024/04/24 03:58:14;;;;;;;0.00;0.00;;;4.60;99.90;;;;;;5231264;27;20007;-62
2024/04/24 04:00:40;;;;;;;0.00;0.00;;;4.50;99.90;;;;;;5232180;27;20022;-62
2024/04/24 04:03:09;;;;;;;0.00;0.00;;;4.50;99.90;;;;;;5232848;27;20453;-62
2024/04/24 04:05:36;;;;;;;0.00;0.00;;;4.60;99.90;;;;;;5201478;27;20024;-62
2024/04/24 04:08:02;;;;;;;0.00;0.00;;;4.50;99.90;;;;;;5232286;27;20021;-62
2024/04/24 04:10:28;;;;;;;0.00;0.00;;;4.50;99.90;;;;;;5220455;27;20476;-62
2024/04/24 04:12:53;;;;;;;0.00;0.00;;;4.60;99.90;;;;;;5232130;27;20023;-62
2024/04/24 04:15:19;;;;;;;0.00;0.00;;;4.50;99.90;;;;;;5230695;27;20003;-61
2024/04/24 04:17:46;;;;;;;0.00;0.00;;;4.50;99.90;;;;;;5232221;27;20493;-62
2024/04/24 04:20:12;;;;;;;0.00;0.00;;;4.50;99.90;;;;;;5232583;27;20011;-61
2024/04/24 04:22:38;;;;;;;0.00;0.00;;;4.50;99.90;;;;;;5230942;27;21020;-62
2024/04/24 04:25:04;;;;;;;0.00;0.00;;;4.50;99.90;;;;;;5232495;27;20026;-62
2024/04/24 04:27:31;;;;;;;0.20;0.20;;;4.50;99.90;;;;;;5239986;27;20011;-62
2024/04/24 04:29:58;;;;;;;0.05;0.05;;;4.40;99.90;;;;;;5230490;27;20007;-62
2024/04/24 04:32:24;;;;;;;0.00;0.00;;;4.50;99.90;;;;;;5192392;27;20040;-62
2024/04/24 04:34:49;;;;;;;0.00;0.00;;;4.50;99.90;;;;;;5232317;27;20560;-62
2024/04/24 04:37:15;;;;;;;0.10;0.10;;;4.50;99.90;;;;;;5201778;27;20003;-62
2024/04/24 04:39:41;;;;;;;0.10;0.10;;;4.50;99.90;;;;;;5230910;27;20027;-62
2024/04/24 04:42:07;;;;;;;0.00;0.00;;;4.70;99.90;;;;;;5231252;27;20137;-62
2024/04/24 04:44:33;;;;;;;0.00;0.00;;;4.60;99.90;;;;;;5230569;27;20443;-62
2024/04/24 04:46:58;;;;;;;0.00;0.00;;;4.70;99.90;;;;;;5231894;27;20035;-62
2024/04/24 04:49:24;;;;;;;0.00;0.00;;;4.70;99.90;;;;;;5230033;27;20409;-61
2024/04/24 04:51:50;;;;;;;0.00;0.00;;;4.80;99.90;;;;;;5230997;27;20003;-62
2024/04/24 04:54:16;;;;;;;0.00;0.00;;;4.60;99.90;;;;;;5230208;27;20011;-62
2024/04/24 04:56:42;;;;;;;0.00;0.00;;;4.70;99.90;;;;;;5230350;27;20107;-62
2024/04/24 04:59:09;;;;;;;0.00;0.00;;;4.70;99.90;;;;;;5231436;27;20358;-62
2024/04/24 05:01:34;;;;;;;0.00;0.00;;;4.70;99.90;;;;;;5200149;27;19999;-62
2024/04/24 05:04:00;;;;;;;0.00;0.00;;;4.60;99.90;;;;;;5232663;27;20116;-62
2024/04/24 05:06:26;;;;;;;0.00;0.00;;;4.60;99.90;;;;;;5229558;27;20082;-62
2024/04/24 05:08:52;;;;;;;0.00;0.00;;;4.50;99.90;;;;;;5231601;27;20481;-62
2024/04/24 05:11:19;;;;;;;0.00;0.00;;;4.60;99.90;;;;;;5210659;27;20440;-62
2024/04/24 05:13:44;;;;;;;0.00;0.00;;;4.60;99.90;;;;;;5231517;27;20018;-62
2024/04/24 05:16:13;;;;;;;0.10;0.10;;;4.60;99.90;;;;;;5230529;27;20003;-62
2024/04/24 05:18:39;;;;;;;0.00;0.00;;;4.60;99.90;;;;;;5230324;27;20019;-62
2024/04/24 05:21:08;;;;;;;0.00;0.00;;;4.60;99.90;;;;;;5231795;27;20095;-62
2024/04/24 05:23:34;;;;;;;0.00;0.00;;;4.60;99.90;;;;;;5229842;27;20086;-62
2024/04/24 05:29:06;;;;;;;0.00;0.00;;;4.70;99.90;;;;;;5158031;27;20473;-62
2024/04/24 05:31:33;;;;;;;0.00;0.00;;;4.70;99.90;;;;;;5197405;27;20031;-63
2024/04/24 05:33:59;;;;;;;0.00;0.00;;;4.80;99.90;;;;;;5202181;27;20480;-62
2024/04/24 05:36:24;;;;;;;1.25;0.00;;;4.90;99.90;;;;;;5229525;27;20003;-62
2024/04/24 05:38:50;;;;;;;0.00;0.00;;;4.90;99.90;;;;;;5231293;27;20417;-63
2024/04/24 05:41:16;;;;;;;0.05;0.05;;;4.90;99.90;;;;;;5229203;27;20003;-62
2024/04/24 05:43:42;;;;;;;0.00;0.00;;;4.90;99.90;;;;;;5242302;27;20127;-63
2024/04/24 05:46:08;;;;;;;0.00;0.00;;;4.90;99.90;;;;;;5242651;27;20051;-62
2024/04/24 05:48:34;;;;;;;0.00;0.00;;;4.90;99.90;;;;;;5217837;27;20039;-62
2024/04/24 05:50:59;;;;;;;0.05;0.05;;;4.90;99.90;;;;;;5230132;27;20074;-62
2024/04/24 05:53:25;;;;;;;0.00;0.00;;;4.80;99.90;;;;;;5228822;27;20017;-62
2024/04/24 05:55:51;;;;;;;0.00;0.00;;;4.80;99.90;;;;;;5230024;27;20444;-63
2024/04/24 05:58:17;;;;;;;0.00;0.00;;;4.80;99.90;;;;;;5229022;27;20439;-63
2024/04/24 06:00:44;;;;;;;0.00;0.00;;;4.90;99.90;;;;;;5235018;27;20007;-62
2024/04/24 06:03:10;;;;;;;0.10;0.10;;;4.90;99.90;;;;;;5230062;27;20002;-62
2024/04/24 06:05:36;;;;;;;0.00;0.00;;;4.90;99.90;;;;;;5230102;27;20090;-63
2024/04/24 06:08:02;;;;;;;0.00;0.00;;;5.00;99.90;;;;;;5230093;27;20032;-63
2024/04/24 06:10:27;;;;;;;0.00;0.00;;;5.10;99.90;;;;;;5241039;27;20025;-63
2024/04/24 06:12:53;;;;;;;0.03;0.03;;;5.10;99.90;;;;;;5235081;27;20409;-63
2024/04/24 06:15:19;;;;;;;0.75;0.00;;;5.20;99.90;;;;;;5200240;27;20010;-63
2024/04/24 06:17:45;;;;;;;0.00;0.00;;;5.20;99.90;;;;;;5200512;27;20026;-63
2024/04/24 06:20:14;;;;;;;0.00;0.00;;;5.20;99.90;;;;;;5228959;27;20258;-63
2024/04/24 06:22:41;;;;;;;0.00;0.00;;;5.20;99.90;;;;;;5240009;27;20864;-62
2024/04/24 06:25:07;;;;;;;0.00;0.00;;;5.10;99.90;;;;;;5231150;27;19998;-62
2024/04/24 06:27:33;;;;;;;0.00;0.00;;;5.20;99.90;;;;;;5228467;27;20106;-62
2024/04/24 06:29:59;;;;;;;0.00;0.00;;;5.20;99.90;;;;;;5231563;27;20021;-62
2024/04/24 06:32:25;;;;;;;0.00;0.00;;;5.30;99.90;;;;;;5228911;27;20330;-63
2024/04/24 06:34:51;;;;;;;0.10;0.05;;;5.40;99.90;;;;;;5231183;27;20050;-62
2024/04/24 06:37:16;;;;;;;0.00;0.00;;;5.40;99.90;;;;;;5220080;27;20003;-62
2024/04/24 06:39:42;;;;;;;0.00;0.00;;;5.50;99.90;;;;;;5242322;27;20059;-62
2024/04/24 06:42:08;;;;;;;0.20;0.00;;;5.60;99.90;;;;;;5235087;27;20010;-62
2024/04/24 06:44:34;;;;;;;0.00;0.00;;;5.60;99.90;;;;;;5230494;27;20443;-62
2024/04/24 06:47:00;;;;;;;0.00;0.00;;;5.70;99.90;;;;;;5234929;27;20096;-62
2024/04/24 06:49:26;;;;;;;0.00;0.00;;;5.60;99.90;;;;;;5251116;27;20726;-62
2024/04/24 06:51:54;;;;;;;0.10;0.10;;;5.80;99.90;;;;;;5233087;27;20014;-63
2024/04/24 06:54:20;;;;;;;0.20;0.05;;;5.90;99.90;;;;;;5236513;27;20423;-62
2024/04/24 06:56:46;;;;;;;0.00;0.00;;;6.10;99.90;;;;;;5235405;27;20022;-62
2024/04/24 06:59:11;;;;;;;0.00;0.00;;;6.40;99.90;;;;;;5248209;27;20010;-62
2024/04/24 07:01:38;;;;;;;0.20;0.10;;;6.60;99.90;;;;;;5230142;27;20003;-62
2024/04/24 07:04:04;;;;;;;0.00;0.00;;;6.80;99.90;;;;;;5178957;27;20014;-62
2024/04/24 07:06:30;;;;;;;0.00;0.00;;;7.10;99.90;;;;;;5229610;27;20003;-63
2024/04/24 07:08:55;;;;;;;0.00;0.00;;;7.30;99.90;;;;;;5220484;27;20006;-62
2024/04/24 07:11:21;;;;;;;0.20;0.10;;;7.50;99.90;;;;;;5231439;27;20085;-62
2024/04/24 07:13:47;;;;;;;0.00;0.00;;;7.40;99.90;;;;;;5225541;27;20331;-62
2024/04/24 07:16:13;;;;;;;0.00;0.00;;;7.30;99.90;;;;;;5233429;27;20577;-62
2024/04/24 07:18:39;;;;;;;0.00;0.00;;;7.30;99.90;;;;;;5229134;27;20348;-62
2024/04/24 07:21:04;;;;;;;0.00;0.00;;;7.20;99.90;;;;;;5209627;27;20505;-62
2024/04/24 07:23:30;;;;;;;0.00;0.00;;;7.10;99.90;;;;;;5230292;27;20397;-63
2024/04/24 07:25:57;;;;;;;0.00;0.00;;;7.00;99.90;;;;;;5212008;27;20027;-63
2024/04/24 07:28:22;;;;;;;0.00;0.00;;;6.90;99.90;;;;;;5230275;27;20009;-62
2024/04/24 07:30:48;;;;;;;0.47;0.10;;;6.70;99.90;;;;;;5213824;27;20012;-62
2024/04/24 07:33:15;;;;;;;0.10;0.10;;;6.50;99.90;;;;;;5204290;27;20051;-63
2024/04/24 07:35:41;;;;;;;0.03;0.00;;;6.40;99.90;;;;;;5217362;27;20026;-62
2024/04/24 07:38:07;;;;;;;0.00;0.00;;;6.30;99.90;;;;;;5223273;27;20003;-63
2024/04/24 07:40:32;;;;;;;0.00;0.00;;;6.30;99.90;;;;;;5221395;27;20588;-62
2024/04/24 07:42:59;;;;;;;0.00;0.00;;;6.70;99.90;;;;;;5209863;27;20015;-63
2024/04/24 07:45:24;;;;;;;0.00;0.00;;;7.10;99.90;;;;;;5206451;27;20505;-63
2024/04/24 07:47:50;;;;;;;0.00;0.00;;;7.20;99.90;;;;;;5220776;27;20853;-62
2024/04/24 07:50:16;;;;;;;0.00;0.00;;;7.10;99.90;;;;;;5216589;27;20396;-62
2024/04/24 07:52:42;;;;;;;0.00;0.00;;;6.90;99.90;;;;;;5207059;27;20040;-62
2024/04/24 07:55:08;;;;;;;0.00;0.00;;;6.80;99.90;;;;;;5215825;27;20102;-62
2024/04/24 07:57:33;;;;;;;0.00;0.00;;;6.60;99.90;;;;;;5212191;27;20530;-63
2024/04/24 07:59:59;;;;;;;0.00;0.00;;;6.50;99.90;;;;;;5220675;27;20351;-62
2024/04/24 08:02:27;;;;;;;0.00;0.00;;;6.50;99.90;;;;;;5217477;27;20015;-63
2024/04/24 08:04:53;;;;;;;0.00;0.00;;;6.50;99.90;;;;;;5239375;27;20405;-62
2024/04/24 08:07:25;;;;;;;0.03;0.00;;;6.50;99.90;;;;;;5219182;27;20008;-63
2024/04/24 08:09:51;;;;;;;0.00;0.00;;;6.50;99.90;;;;;;5239647;27;20010;-63
2024/04/24 08:12:16;;;;;;;0.00;0.00;;;6.50;99.90;;;;;;5233891;27;20002;-63
2024/04/24 08:14:42;;;;;;;0.00;0.00;;;6.60;99.90;;;;;;5240103;27;20003;-62
2024/04/24 08:17:08;;;;;;;0.00;0.00;;;6.70;99.90;;;;;;5231115;27;20154;-63
2024/04/24 08:19:34;;;;;;;0.00;0.00;;;6.70;99.90;;;;;;5240535;27;20011;-63
2024/04/24 08:21:59;;;;;;;0.00;0.00;;;6.90;99.90;;;;;;5247365;27;20096;-62
2024/04/24 08:24:25;;;;;;;0.00;0.00;;;7.00;99.90;;;;;;5239522;27;20002;-63
2024/04/24 08:26:51;;;;;;;0.00;0.00;;;7.30;99.90;;;;;;5205486;27;20003;-63
2024/04/24 08:29:17;;;;;;;0.00;0.00;;;7.40;99.90;;;;;;5230733;27;20043;-62
2024/04/24 08:31:43;;;;;;;0.00;0.00;;;7.50;99.90;;;;;;5247416;27;20018;-63
2024/04/24 08:34:08;;;;;;;0.60;0.13;;;7.40;99.90;;;;;;5227974;27;20069;-63
2024/04/24 08:36:34;;;;;;;0.00;0.00;;;7.30;99.90;;;;;;5240823;27;20017;-63
2024/04/24 08:39:00;;;;;;;0.05;0.03;;;7.30;99.90;;;;;;5236683;27;19999;-62
2024/04/24 08:41:26;;;;;;;0.00;0.00;;;7.30;99.90;;;;;;5222466;27;20525;-63
2024/04/24 08:43:54;;;;;;;0.00;0.00;;;7.40;99.90;;;;;;5233812;27;20051;-62
2024/04/24 08:46:20;;;;;;;0.00;0.00;;;7.70;99.90;;;;;;5225063;27;20039;-62
2024/04/24 08:48:46;;;;;;;0.00;0.00;;;7.90;99.90;;;;;;5230300;27;20004;-63
2024/04/24 08:51:12;;;;;;;0.00;0.00;;;8.20;99.90;;;;;;5211303;27;20021;-63
2024/04/24 08:54:02;;;;;;;0.00;0.00;;;8.40;99.90;;;;;;5232066;27;20338;-63
2024/04/24 08:56:34;;;;;;;0.00;0.00;;;8.70;99.90;;;;;;5192105;27;20349;-62
2024/04/24 08:59:19;;;;;;;0.00;0.00;;;8.70;99.90;;;;;;5228987;27;20414;-62
2024/04/24 09:01:56;;;;;;;0.00;0.00;;;8.50;99.90;;;;;;5244078;27;20349;-62
2024/04/24 09:04:25;;;;;;;0.00;0.00;;;8.60;99.90;;;;;;5237118;27;20010;-62
2024/04/24 09:06:51;;;;;;;0.25;0.05;;;8.70;99.90;;;;;;5232153;27;20520;-63
2024/04/24 09:09:17;;;;;;;0.00;0.00;;;8.70;99.90;;;;;;5200471;27;20011;-63
2024/04/24 09:11:44;;;;;;;0.00;0.00;;;8.60;99.90;;;;;;5236014;27;20050;-63
2024/04/24 09:14:10;;;;;;;0.00;0.00;;;8.70;99.90;;;;;;5238667;27;20466;-62
2024/04/24 09:16:38;;;;;;;0.00;0.00;;;8.60;99.90;;;;;;5240957;27;20006;-63
2024/04/24 09:19:04;;;;;;;0.00;0.00;;;8.60;99.90;;;;;;5241259;27;20023;-63
2024/04/24 09:21:31;;;;;;;0.00;0.00;;;8.60;99.90;;;;;;5239324;27;20015;-62
2024/04/24 09:23:58;;;;;;;0.00;0.00;;;8.60;99.90;;;;;;5236213;27;20088;-63
2024/04/24 09:26:25;;;;;;;0.00;0.00;;;8.90;99.90;;;;;;5222352;27;20488;-63
2024/04/24 09:28:51;;;;;;;0.00;0.00;;;9.10;99.90;;;;;;5197063;27;20059;-62
2024/04/24 09:31:17;;;;;;;0.00;0.00;;;9.30;99.90;;;;;;5227071;27;20466;-63
2024/04/24 09:33:44;;;;;;;0.00;0.00;;;9.30;99.90;;;;;;5199216;27;20093;-62
2024/04/24 09:36:10;;;;;;;0.00;0.00;;;9.40;99.90;;;;;;5220655;27;20008;-63
2024/04/24 09:38:38;;;;;;;0.00;0.00;;;9.80;99.90;;;;;;5230684;27;20436;-63
2024/04/24 09:41:03;;;;;;;0.00;0.00;;;9.80;99.90;;;;;;5205021;27;20525;-62
2024/04/24 09:43:30;;;;;;;0.45;0.10;;;9.60;99.90;;;;;;5239158;27;20043;-63
2024/04/24 09:46:00;;;;;;;0.00;0.00;;;9.50;99.90;;;;;;5256004;27;20540;-62
2024/04/24 09:48:26;;;;;;;0.00;0.00;;;9.40;99.90;;;;;;5232224;27;20003;-63
2024/04/24 09:50:52;;;;;;;0.00;0.00;;;9.40;99.90;;;;;;5229534;27;20429;-63
2024/04/24 09:53:19;;;;;;;0.00;0.00;;;9.70;99.90;;;;;;5233406;27;19999;-63
2024/04/24 09:56:01;;;;;;;0.00;0.00;;;10.00;99.90;;;;;;5210105;27;20421;-62
2024/04/24 09:58:31;;;;;;;0.00;0.00;;;10.20;99.90;;;;;;5222171;27;20003;-63
2024/04/24 10:01:01;;;;;;;0.00;0.00;;;10.20;99.90;;;;;;5243196;27;20018;-63
2024/04/24 10:03:31;;;;;;;0.00;0.00;;;10.10;99.90;;;;;;5222846;27;20448;-62
2024/04/24 10:06:00;;;;;;;0.00;0.00;;;9.60;99.90;;;;;;5241397;27;20007;-62
2024/04/24 10:08:32;;;;;;;0.00;0.00;;;9.30;99.90;;;;;;5218555;27;20003;-63
2024/04/24 10:11:02;;;;;;;0.00;0.00;;;9.40;99.90;;;;;;5221777;27;20587;-63
2024/04/24 10:13:35;;;;;;;0.00;0.00;;;9.60;99.90;;;;;;5164139;27;20345;-63
2024/04/24 10:16:04;;;;;;;0.85;0.00;;;9.60;66.30;;;;;;5235007;27;20011;-63
2024/04/24 10:18:31;;;;;;;0.05;0.00;;;9.50;1.00;;;;;;5185273;27;20003;-63
2024/04/24 10:20:57;;;;;;;0.00;0.00;;;9.50;1.00;;;;;;5231298;27;20003;-63
2024/04/24 10:23:26;;;;;;;0.00;0.00;;;9.60;1.00;;;;;;5200423;27;20055;-63
2024/04/24 10:25:54;;;;;;;0.00;0.00;;;9.70;1.00;;;;;;5228918;27;20051;-63
2024/04/24 10:28:23;;;;;;;0.00;0.00;;;9.80;1.00;;;;;;5227840;27;20439;-63
2024/04/24 10:30:49;;;;;;;0.00;0.00;;;9.80;1.00;;;;;;5225146;27;20010;-63
2024/04/24 10:33:16;;;;;;;0.13;0.13;;;9.90;99.90;;;;;;5234819;27;20029;-63
2024/04/24 10:35:43;;;;;;;0.00;0.00;;;9.60;1.00;;;;;;5217968;27;20040;-64
2024/04/24 10:38:12;;;;;;;0.00;0.00;;;9.40;99.90;;;;;;5174789;27;20018;-63
2024/04/24 10:40:38;;;;;;;0.35;0.10;;;9.50;1.00;;;;;;5227929;27;20022;-63
2024/04/24 10:43:06;;;;;;;0.00;0.00;;;9.50;99.90;;;;;;5232500;27;20007;-63
2024/04/24 10:45:39;;;;;;;0.00;0.00;;;9.60;99.90;;;;;;5225165;27;20029;-64
2024/04/24 10:48:10;;;;;;;0.00;0.00;;;9.50;99.90;;;;;;5216416;27;20089;-64
2024/04/24 10:50:39;;;;;;;0.00;0.00;;;9.50;1.00;;;;;;5210736;27;20035;-64
2024/04/24 10:53:06;;;;;;;0.00;0.00;;;9.50;99.90;;;;;;5228116;27;20336;-63
2024/04/24 10:55:32;;;;;;;0.00;0.00;;;9.50;1.00;;;;;;5204223;27;20007;-64
2024/04/24 10:58:00;;;;;;;0.00;0.00;;;9.70;1.00;;;;;;5229026;27;20007;-64
2024/04/24 11:00:33;;;;;;;0.00;0.00;;;9.80;1.00;;;;;;5243644;27;20007;-64
2024/04/24 11:03:00;;;;;;;0.00;0.00;;;9.80;1.00;;;;;;5200138;27;20003;-64
2024/04/24 11:05:31;;;;;;;0.00;0.00;;;9.90;1.00;;;;;;5204758;27;20422;-63
2024/04/24 11:07:59;;;;;;;0.00;0.00;;;9.70;1.00;;;;;;5231515;27;20014;-64
2024/04/24 11:10:26;;;;;;;0.00;0.00;;;9.50;1.00;;;;;;5214766;27;20019;-63
2024/04/24 11:12:52;;;;;;;0.00;0.00;;;9.40;99.90;;;;;;5218045;27;20011;-64
2024/04/24 11:15:24;;;;;;;0.00;0.00;;;9.20;99.90;;;;;;5228280;27;20015;-64
2024/04/24 11:17:51;;;;;;;0.00;0.00;;;9.30;1.00;;;;;;5197387;27;20011;-63
2024/04/24 11:20:18;;;;;;;0.20;0.10;;;9.40;1.00;;;;;;5206173;27;20495;-64
2024/04/24 11:22:44;;;;;;;0.13;0.00;;;9.40;1.00;;;;;;5179872;27;20078;-64
2024/04/24 11:25:11;;;;;;;0.40;0.10;;;9.40;25.50;;;;;;5187112;27;20020;-63
2024/04/24 11:27:38;;;;;;;0.00;0.00;;;9.20;1.00;;;;;;5217784;27;20003;-63
2024/04/24 11:30:15;;;;;;;0.00;0.00;;;9.30;99.90;;;;;;5225626;27;20107;-63
2024/04/24 11:32:46;;;;;;;0.00;0.00;;;9.50;1.00;;;;;;5228061;27;20010;-63
2024/04/24 11:35:13;;;;;;;0.00;0.00;;;9.60;1.00;;;;;;5182249;27;20019;-63
2024/04/24 11:37:40;;;;;;;0.00;0.00;;;9.50;1.00;;;;;;5205544;27;20014;-64
2024/04/24 11:40:11;;;;;;;0.00;0.00;;;9.50;99.90;;;;;;5228152;27;20037;-63
2024/04/24 11:42:56;;;;;;;0.00;0.00;;;9.60;99.90;;;;;;5227432;27;20556;-64
2024/04/24 11:45:25;;;;;;;0.20;0.05;;;9.90;1.00;;;;;;5233532;27;19998;-64
2024/04/24 11:47:51;;;;;;;0.28;0.00;;;10.00;1.00;;;;;;5232451;27;20090;-63
2024/04/24 11:50:20;;;;;;;0.00;0.00;;;9.90;99.90;;;;;;5235223;27;20030;-64
2024/04/24 11:52:46;;;;;;;0.00;0.00;;;9.80;99.90;;;;;;5229141;27;20022;-64
2024/04/24 11:55:12;;;;;;;0.00;0.00;;;9.60;1.00;;;;;;5212684;27;20009;-64
2024/04/24 11:57:39;;;;;;;0.10;0.10;;;9.50;99.90;;;;;;5199494;27;20493;-64
2024/04/24 12:00:07;;;;;;;0.00;0.00;;;9.40;1.00;;;;;;5239217;27;20125;-64
2024/04/24 12:02:34;;;;;;;0.00;0.00;;;9.40;1.00;;;;;;5233079;27;20011;-63
2024/04/24 12:05:06;;;;;;;0.00;0.00;;;9.50;1.00;;;;;;5221152;27;20017;-63
2024/04/24 12:07:32;;;;;;;0.00;0.00;;;9.50;99.90;;;;;;5211914;27;20461;-64
2024/04/24 12:09:59;;;;;;;0.00;0.00;;;9.20;99.90;;;;;;5215184;27;20011;-64
2024/04/24 12:12:26;;;;;;;0.00;0.00;;;9.00;99.90;;;;;;5233809;27;20077;-63
2024/04/24 12:14:55;;;;;;;0.00;0.00;;;8.90;99.90;;;;;;5241523;27;20015;-64
2024/04/24 12:17:21;;;;;;;0.00;0.00;;;9.00;99.90;;;;;;5220867;27;20466;-64
2024/04/24 12:19:47;;;;;;;0.00;0.00;;;9.10;99.90;;;;;;5242356;27;20013;-64
2024/04/24 12:22:13;;;;;;;0.00;0.00;;;9.20;99.90;;;;;;5234336;27;20003;-64
2024/04/24 12:24:39;;;;;;;0.03;0.03;;;9.30;99.90;;;;;;5240576;27;20010;-61
2024/04/24 12:27:05;;;;;;;0.00;0.00;;;9.10;1.00;;;;;;5239660;27;20482;-61
2024/04/24 12:29:31;;;;;;;0.00;0.00;;;9.10;1.00;;;;;;5232924;27;19999;-63
2024/04/24 12:31:58;;;;;;;0.15;0.08;;;9.00;1.00;;;;;;5236398;27;20466;-63
2024/04/24 12:34:24;;;;;;;0.00;0.00;;;8.90;1.00;;;;;;5240788;27;20357;-63
2024/04/24 12:36:53;;;;;;;0.00;0.00;;;8.90;1.00;;;;;;5211717;27;20006;-63
2024/04/24 12:39:20;;;;;;;0.00;0.00;;;8.90;99.90;;;;;;5229948;27;20003;-63
2024/04/24 12:41:49;;;;;;;0.10;0.10;;;8.90;99.90;;;;;;5223183;27;20006;-63
2024/04/24 12:44:15;;;;;;;0.00;0.00;;;8.90;99.90;;;;;;5229974;27;20011;-63
2024/04/24 12:46:42;;;;;;;0.00;0.00;;;8.90;99.90;;;;;;5238326;27;20488;-63
2024/04/24 12:49:07;;;;;;;0.05;0.00;;;9.00;1.00;;;;;;5229211;27;20671;-63
2024/04/24 12:51:34;;;;;;;0.30;0.00;;;9.10;1.00;;;;;;5231430;27;20102;-63
2024/04/24 12:54:00;;;;;;;0.00;0.00;;;9.30;99.90;;;;;;5204476;27;20007;-63
2024/04/24 12:56:27;;;;;;;0.00;0.00;;;9.50;99.90;;;;;;5183456;27;20005;-62
2024/04/24 12:58:53;;;;;;;0.00;0.00;;;9.60;99.90;;;;;;5231811;27;20344;-63